Time,TemperatureF,DewpointF,PressureIn,WindDirection,WindDirectionDegrees,WindSpeedMPH,WindSpeedGustMPH,Humidity,HourlyPrecipIn,Conditions,Clouds,dailyrainin,SolarRadiationWatts/m^2,SoftwareType,DateUTC
2013-09-14 00:13:00,43.0,41.0,30.07,South,186,4.0,5.0,91,0.00,,,0.00,0,weatherlink.com 1.10,2013-09-14 04:13:00,
2013-09-14 00:28:00,43.4,41.0,30.07,SSW,192,2.0,3.0,90,0.00,,,0.00,0,weatherlink.com 1.10,2013-09-14 04:28:00,
2013-09-14 00:43:00,43.8,41.0,30.07,SW,236,1.0,4.0,89,0.00,,,0.00,0,weatherlink.com 1.10,2013-09-14 04:43:00,
2013-09-14 00:58:00,43.9,41.0,30.07,SSE,167,1.0,4.0,89,0.00,,,0.00,0,weatherlink.com 1.10,2013-09-14 04:58:00,
2013-09-14 01:13:00,43.9,41.0,30.07,SSE,165,2.0,4.0,88,0.00,,,0.00,0,weatherlink.com 1.10,2013-09-14 05:13:00,
2013-09-14 01:28:00,44.0,40.0,30.06,SSW,192,0.0,4.0,87,0.00,,,0.00,0,weatherlink.com 1.10,2013-09-14 05:28:00,
2013-09-14 01:43:00,43.9,40.0,30.07,SSW,192,0.0,3.0,86,0.00,,,0.00,0,weatherlink.com 1.10,2013-09-14 05:43:00,
2013-09-14 01:58:00,43.6,40.0,30.07,SSW,192,0.0,2.0,87,0.00,,,0.00,0,weatherlink.com 1.10,2013-09-14 05:58:00,
2013-09-14 02:13:00,43.4,40.0,30.07,SSW,192,0.0,1.0,87,0.00,,,0.00,0,weatherlink.com 1.10,2013-09-14 06:13:00,
2013-09-14 02:28:00,43.8,40.0,30.07,South,173,0.0,2.0,87,0.00,,,0.00,0,weatherlink.com 1.10,2013-09-14 06:28:00,
2013-09-14 02:43:00,44.3,41.0,30.06,South,173,1.0,2.0,87,0.00,,,0.00,0,weatherlink.com 1.10,2013-09-14 06:43:00,
2013-09-14 02:58:00,44.9,41.0,30.06,South,177,0.0,2.0,86,0.00,,,0.00,0,weatherlink.com 1.10,2013-09-14 06:58:00,
2013-09-14 03:13:00,45.2,41.0,30.06,South,180,0.0,6.0,84,0.00,,,0.00,0,weatherlink.com 1.10,2013-09-14 07:13:00,
2013-09-14 03:28:00,45.2,41.0,30.05,SSW,200,2.0,5.0,84,0.00,,,0.00,0,weatherlink.com 1.10,2013-09-14 07:28:00,
2013-09-14 03:43:00,45.0,41.0,30.05,South,178,2.0,7.0,84,0.00,,,0.00,0,weatherlink.com 1.10,2013-09-14 07:43:00,
2013-09-14 03:58:00,45.1,41.0,30.05,South,185,1.0,6.0,84,0.00,,,0.00,0,weatherlink.com 1.10,2013-09-14 07:58:00,
2013-09-14 04:13:00,45.3,41.0,30.05,South,186,0.0,4.0,84,0.00,,,0.00,0,weatherlink.com 1.10,2013-09-14 08:13:00,
2013-09-14 04:28:00,45.4,41.0,30.05,SSE,165,2.0,6.0,84,0.00,,,0.00,0,weatherlink.com 1.10,2013-09-14 08:28:00,
2013-09-14 04:43:00,45.2,41.0,30.05,South,185,1.0,6.0,84,0.00,,,0.00,0,weatherlink.com 1.10,2013-09-14 08:43:00,
2013-09-14 04:58:00,45.0,41.0,30.04,SSE,159,0.0,6.0,84,0.00,,,0.00,0,weatherlink.com 1.10,2013-09-14 08:58:00,
2013-09-14 05:13:00,44.6,40.0,30.04,SSE,163,0.0,3.0,85,0.00,,,0.00,0,weatherlink.com 1.10,2013-09-14 09:13:00,
2013-09-14 05:28:00,44.6,41.0,30.04,South,189,0.0,5.0,86,0.00,,,0.00,0,weatherlink.com 1.10,2013-09-14 09:28:00,
2013-09-14 05:43:00,44.7,41.0,30.03,South,173,1.0,6.0,87,0.00,,,0.00,0,weatherlink.com 1.10,2013-09-14 09:43:00,
2013-09-14 05:58:00,44.8,41.0,30.03,SSW,192,2.0,5.0,87,0.00,,,0.00,0,weatherlink.com 1.10,2013-09-14 09:58:00,
2013-09-14 06:13:00,44.9,41.0,30.03,SSW,207,2.0,7.0,87,0.00,,,0.00,0,weatherlink.com 1.10,2013-09-14 10:13:00,
2013-09-14 06:28:00,44.8,41.0,30.04,SSW,196,1.0,3.0,87,0.00,,,0.00,0,weatherlink.com 1.10,2013-09-14 10:28:00,
2013-09-14 06:43:00,44.5,41.0,30.03,South,173,4.0,5.0,87,0.00,,,0.00,0,weatherlink.com 1.10,2013-09-14 10:43:00,
2013-09-14 06:58:00,44.3,41.0,30.03,SSW,200,1.0,3.0,87,0.00,,,0.00,0,weatherlink.com 1.10,2013-09-14 10:58:00,
2013-09-14 07:13:00,44.3,41.0,30.03,SSE,155,1.0,5.0,88,0.00,,,0.00,0,weatherlink.com 1.10,2013-09-14 11:13:00,
2013-09-14 07:28:00,44.6,41.0,30.03,SSW,193,0.0,5.0,88,0.00,,,0.00,7,weatherlink.com 1.10,2013-09-14 11:28:00,
2013-09-14 07:43:00,45.2,42.0,30.04,South,174,1.0,5.0,88,0.00,,,0.00,19,weatherlink.com 1.10,2013-09-14 11:43:00,
2013-09-14 07:58:00,46.0,42.0,30.04,SSE,167,4.0,7.0,87,0.00,,,0.00,25,weatherlink.com 1.10,2013-09-14 11:58:00,
2013-09-14 08:14:00,46.8,43.0,30.03,South,185,2.0,4.0,86,0.00,,,0.00,30,weatherlink.com 1.10,2013-09-14 12:14:00,
2013-09-14 08:29:00,47.6,43.0,30.03,South,184,0.0,3.0,85,0.00,,,0.00,32,weatherlink.com 1.10,2013-09-14 12:29:00,
2013-09-14 08:44:00,47.7,43.0,30.03,South,184,0.0,4.0,84,0.00,,,0.00,40,weatherlink.com 1.10,2013-09-14 12:44:00,
2013-09-14 08:59:00,49.2,44.0,30.02,South,183,0.0,5.0,83,0.00,,,0.00,118,weatherlink.com 1.10,2013-09-14 12:59:00,
2013-09-14 09:14:00,51.6,45.0,30.02,SSE,159,3.0,9.0,79,0.00,,,0.00,63,weatherlink.com 1.10,2013-09-14 13:14:00,
2013-09-14 09:29:00,53.3,46.0,30.01,SSE,153,4.0,7.0,76,0.00,,,0.00,62,weatherlink.com 1.10,2013-09-14 13:29:00,
2013-09-14 09:44:00,54.5,47.0,30.00,South,181,1.0,6.0,75,0.00,,,0.00,84,weatherlink.com 1.10,2013-09-14 13:44:00,
2013-09-14 09:59:00,55.8,48.0,30.00,South,175,2.0,4.0,75,0.00,,,0.00,120,weatherlink.com 1.10,2013-09-14 13:59:00,
2013-09-14 10:14:00,57.1,49.0,30.00,WSW,257,0.0,8.0,73,0.00,,,0.00,105,weatherlink.com 1.10,2013-09-14 14:14:00,
2013-09-14 10:29:00,57.9,48.0,30.00,South,176,0.0,6.0,70,0.00,,,0.00,127,weatherlink.com 1.10,2013-09-14 14:29:00,
2013-09-14 10:44:00,59.6,49.0,29.99,South,177,4.0,6.0,69,0.00,,,0.00,127,weatherlink.com 1.10,2013-09-14 14:44:00,
2013-09-14 10:59:00,60.7,49.0,29.99,South,181,2.0,5.0,66,0.00,,,0.00,123,weatherlink.com 1.10,2013-09-14 14:59:00,
2013-09-14 11:14:00,62.1,51.0,29.99,SSE,151,5.0,7.0,66,0.00,,,0.00,158,weatherlink.com 1.10,2013-09-14 15:14:00,
2013-09-14 11:29:00,64.1,50.0,29.98,NW,322,3.0,8.0,61,0.00,,,0.00,214,weatherlink.com 1.10,2013-09-14 15:29:00,
2013-09-14 11:44:00,63.9,50.0,29.97,East,87,1.0,6.0,61,0.00,,,0.00,156,weatherlink.com 1.10,2013-09-14 15:44:00,
2013-09-14 11:59:00,64.6,50.0,29.97,South,180,8.0,11.0,59,0.00,,,0.00,596,weatherlink.com 1.10,2013-09-14 15:59:00,
2013-09-14 12:14:00,66.0,52.0,29.96,South,172,3.0,6.0,60,0.00,,,0.00,673,weatherlink.com 1.10,2013-09-14 16:14:00,
2013-09-14 12:29:00,65.6,49.0,29.95,East,84,2.0,10.0,55,0.00,,,0.00,659,weatherlink.com 1.10,2013-09-14 16:29:00,
2013-09-14 12:45:00,66.9,50.0,29.95,South,182,3.0,6.0,54,0.00,,,0.00,701,weatherlink.com 1.10,2013-09-14 16:45:00,
2013-09-14 13:00:00,67.6,51.0,29.95,South,186,3.0,9.0,55,0.00,,,0.00,745,weatherlink.com 1.10,2013-09-14 17:00:00,
2013-09-14 13:15:00,67.8,49.0,29.94,ESE,117,2.0,8.0,52,0.00,,,0.00,613,weatherlink.com 1.10,2013-09-14 17:15:00,
2013-09-14 13:30:00,67.7,49.0,29.94,WSW,240,1.0,6.0,52,0.00,,,0.00,526,weatherlink.com 1.10,2013-09-14 17:30:00,
2013-09-14 13:45:00,68.2,50.0,29.93,SE,146,3.0,9.0,53,0.00,,,0.00,759,weatherlink.com 1.10,2013-09-14 17:45:00,
2013-09-14 14:00:00,68.6,51.0,29.92,SSW,196,2.0,10.0,53,0.00,,,0.00,673,weatherlink.com 1.10,2013-09-14 18:00:00,
2013-09-14 14:15:00,69.5,50.0,29.90,SSW,212,1.0,10.0,50,0.00,,,0.00,754,weatherlink.com 1.10,2013-09-14 18:15:00,
2013-09-14 14:30:00,71.0,51.0,29.90,SW,228,4.0,6.0,50,0.00,,,0.00,779,weatherlink.com 1.10,2013-09-14 18:30:00,
2013-09-14 14:45:00,70.6,52.0,29.90,East,80,0.0,9.0,53,0.00,,,0.00,703,weatherlink.com 1.10,2013-09-14 18:45:00,
2013-09-14 15:00:00,70.8,51.0,29.90,South,173,7.0,10.0,49,0.00,,,0.00,691,weatherlink.com 1.10,2013-09-14 19:00:00,
2013-09-14 15:15:00,70.3,51.0,29.89,South,169,1.0,15.0,50,0.00,,,0.00,668,weatherlink.com 1.10,2013-09-14 19:15:00,
2013-09-14 15:30:00,71.4,51.0,29.89,SSW,213,0.0,4.0,48,0.00,,,0.00,693,weatherlink.com 1.10,2013-09-14 19:30:00,
2013-09-14 15:45:00,71.9,54.0,29.89,SSE,152,2.0,6.0,54,0.00,,,0.00,638,weatherlink.com 1.10,2013-09-14 19:45:00,
2013-09-14 16:00:00,71.9,52.0,29.89,SSW,204,3.0,7.0,49,0.00,,,0.00,631,weatherlink.com 1.10,2013-09-14 20:00:00,
2013-09-14 16:15:00,71.9,52.0,29.89,South,189,2.0,5.0,49,0.00,,,0.00,461,weatherlink.com 1.10,2013-09-14 20:15:00,
2013-09-14 16:30:00,70.0,51.0,29.88,SSE,152,2.0,5.0,51,0.00,,,0.00,322,weatherlink.com 1.10,2013-09-14 20:30:00,
2013-09-14 16:45:00,70.2,51.0,29.88,South,183,1.0,7.0,51,0.00,,,0.00,352,weatherlink.com 1.10,2013-09-14 20:45:00,
2013-09-14 17:00:00,69.4,52.0,29.88,SSW,197,3.0,4.0,54,0.00,,,0.00,176,weatherlink.com 1.10,2013-09-14 21:00:00,
2013-09-14 17:15:00,69.1,52.0,29.88,SSW,202,0.0,6.0,55,0.00,,,0.00,192,weatherlink.com 1.10,2013-09-14 21:15:00,
2013-09-14 17:30:00,68.6,51.0,29.88,ESE,115,3.0,9.0,54,0.00,,,0.00,98,weatherlink.com 1.10,2013-09-14 21:30:00,
2013-09-14 17:45:00,67.9,51.0,29.88,SSW,209,4.0,5.0,56,0.00,,,0.00,121,weatherlink.com 1.10,2013-09-14 21:45:00,
2013-09-14 18:00:00,67.7,52.0,29.89,South,184,0.0,6.0,58,0.00,,,0.00,100,weatherlink.com 1.10,2013-09-14 22:00:00,
2013-09-14 18:15:00,67.3,55.0,29.89,South,184,0.0,1.0,65,0.00,,,0.00,74,weatherlink.com 1.10,2013-09-14 22:15:00,
2013-09-14 18:30:00,66.3,56.0,29.89,South,184,0.0,1.0,70,0.00,,,0.00,84,weatherlink.com 1.10,2013-09-14 22:30:00,
2013-09-14 18:45:00,65.7,56.0,29.89,South,184,0.0,1.0,71,0.00,,,0.00,62,weatherlink.com 1.10,2013-09-14 22:45:00,
2013-09-14 19:00:00,65.4,55.0,29.89,South,184,0.0,3.0,68,0.00,,,0.00,49,weatherlink.com 1.10,2013-09-14 23:00:00,
2013-09-14 19:15:00,65.3,54.0,29.89,South,187,0.0,2.0,68,0.00,,,0.00,40,weatherlink.com 1.10,2013-09-14 23:15:00,
2013-09-14 19:30:00,64.4,56.0,29.89,South,187,0.0,0.0,73,0.00,,,0.00,19,weatherlink.com 1.10,2013-09-14 23:30:00,
2013-09-14 19:45:00,62.9,56.0,29.89,South,187,0.0,0.0,77,0.00,,,0.00,7,weatherlink.com 1.10,2013-09-14 23:45:00,
2013-09-14 20:00:00,61.5,55.0,29.89,South,187,0.0,0.0,79,0.00,,,0.00,0,weatherlink.com 1.10,2013-09-15 00:00:00,
2013-09-14 20:15:00,60.5,55.0,29.89,South,187,0.0,0.0,81,0.00,,,0.00,0,weatherlink.com 1.10,2013-09-15 00:15:00,
2013-09-14 20:30:00,59.8,54.0,29.88,South,187,0.0,1.0,81,0.00,,,0.00,0,weatherlink.com 1.10,2013-09-15 00:30:00,
2013-09-14 20:45:00,59.3,54.0,29.88,South,187,1.0,3.0,82,0.00,,,0.00,0,weatherlink.com 1.10,2013-09-15 00:45:00,
2013-09-14 21:00:00,59.5,53.0,29.87,South,187,0.0,3.0,80,0.00,,,0.00,0,weatherlink.com 1.10,2013-09-15 01:00:00,
2013-09-14 21:15:00,60.3,53.0,29.87,SSW,193,1.0,4.0,76,0.00,,,0.00,0,weatherlink.com 1.10,2013-09-15 01:15:00,
2013-09-14 21:30:00,61.0,52.0,29.87,SW,231,1.0,6.0,73,0.00,,,0.00,0,weatherlink.com 1.10,2013-09-15 01:30:00,
2013-09-14 21:45:00,61.4,52.0,29.87,SSE,159,0.0,5.0,72,0.00,,,0.00,0,weatherlink.com 1.10,2013-09-15 01:45:00,
2013-09-14 22:00:00,61.5,52.0,29.86,South,180,1.0,5.0,71,0.00,,,0.00,0,weatherlink.com 1.10,2013-09-15 02:00:00,
2013-09-14 22:15:00,61.6,52.0,29.86,South,177,1.0,5.0,71,0.00,,,0.00,0,weatherlink.com 1.10,2013-09-15 02:15:00,
2013-09-14 22:30:00,61.7,52.0,29.86,SSW,201,3.0,8.0,71,0.00,,,0.00,0,weatherlink.com 1.10,2013-09-15 02:30:00,
2013-09-14 22:45:00,61.5,52.0,29.86,South,175,1.0,6.0,72,0.00,,,0.00,0,weatherlink.com 1.10,2013-09-15 02:45:00,
2013-09-14 23:00:00,61.3,52.0,29.86,South,190,1.0,7.0,72,0.00,,,0.00,0,weatherlink.com 1.10,2013-09-15 03:00:00,
2013-09-14 23:15:00,61.4,52.0,29.86,South,180,2.0,7.0,71,0.00,,,0.00,0,weatherlink.com 1.10,2013-09-15 03:15:00,
2013-09-14 23:30:00,61.5,52.0,29.86,SE,143,4.0,7.0,71,0.00,,,0.00,0,weatherlink.com 1.10,2013-09-15 03:30:00,
2013-09-14 23:45:00,61.6,52.0,29.85,SSW,205,3.0,8.0,70,0.00,,,0.00,0,weatherlink.com 1.10,2013-09-15 03:45:00,